Time;durP1;ratioP1;P1;durP2;ratioP2;P2;SDS_P1;SDS_P2;PMS_P1;PMS_P2;Temp;Humidity;BMP_temperature;BMP_pressure;BME280_temperature;BME280_humidity;BME280_pressure;Samples;Min_cycle;Max_cycle;Signal;HPM_P1;HPM_P2
2023/12/07 00:01:03;;;;;;;25.00;21.47;;;;;;;3.26;100.00;100480.84;4975338;28;20277;-80
2023/12/07 00:03:30;;;;;;;22.47;20.17;;;;;;;3.24;100.00;100478.25;4975452;28;20214;-79
2023/12/07 00:05:56;;;;;;;24.80;20.10;;;;;;;3.17;100.00;100489.31;4975390;28;20737;-80
2023/12/07 00:08:24;;;;;;;22.47;20.33;;;;;;;3.13;100.00;100485.88;4969521;28;20233;-79
2023/12/07 00:10:50;;;;;;;21.93;19.70;;;;;;;3.24;100.00;100488.56;4966033;28;20292;-80
2023/12/07 00:13:17;;;;;;;24.33;21.90;;;;;;;3.30;100.00;100500.66;4965595;28;20236;-80
2023/12/07 00:15:43;;;;;;;22.43;20.17;;;;;;;3.17;100.00;100518.59;4967896;28;20251;-79
2023/12/07 00:18:09;;;;;;;22.13;19.97;;;;;;;3.26;100.00;100512.66;4967647;28;20237;-81
2023/12/07 00:20:36;;;;;;;22.03;19.60;;;;;;;3.40;100.00;100524.88;4967472;28;20282;-79
2023/12/07 00:23:02;;;;;;;24.27;20.63;;;;;;;3.18;99.96;100532.34;4968212;28;20288;-81
2023/12/07 00:25:30;;;;;;;21.13;18.87;;;;;;;3.02;100.00;100527.84;4966707;28;20215;-80
2023/12/07 00:27:56;;;;;;;22.87;20.57;;;;;;;2.95;100.00;100522.59;4968665;28;20241;-81
2023/12/07 00:30:23;;;;;;;22.57;20.37;;;;;;;2.91;100.00;100518.22;4965490;28;20240;-80
2023/12/07 00:32:49;;;;;;;21.00;18.97;;;;;;;3.01;100.00;100506.31;4973630;28;20260;-81
2023/12/07 00:35:16;;;;;;;22.43;19.63;;;;;;;3.08;100.00;100507.28;5031571;22;20251;-78
2023/12/07 00:37:42;;;;;;;22.07;19.87;;;;;;;2.98;100.00;100507.16;5009656;28;20222;-78
2023/12/07 00:40:09;;;;;;;22.13;19.97;;;;;;;2.81;100.00;100503.47;5008959;28;20234;-79
2023/12/07 00:42:37;;;;;;;21.13;19.17;;;;;;;2.75;100.00;100493.09;5009118;28;20211;-79
2023/12/07 00:45:04;;;;;;;25.03;19.93;;;;;;;2.80;100.00;100469.97;5002141;28;20220;-79
2023/12/07 00:47:31;;;;;;;22.77;20.27;;;;;;;2.87;100.00;100471.78;5008650;28;20206;-79
2023/12/07 00:49:57;;;;;;;21.63;19.63;;;;;;;2.92;100.00;100470.13;5010246;28;20207;-79
2023/12/07 00:52:23;;;;;;;24.30;20.57;;;;;;;3.12;100.00;100478.97;5010703;28;20744;-78
2023/12/07 00:54:50;;;;;;;22.70;20.40;;;;;;;3.03;100.00;100494.31;5010386;28;20740;-79
2023/12/07 00:57:16;;;;;;;22.57;20.37;;;;;;;3.00;100.00;100480.53;5011818;28;20232;-79
2023/12/07 00:59:43;;;;;;;23.90;20.73;;;;;;;3.14;100.00;100484.16;5010818;28;20204;-77
2023/12/07 01:02:10;;;;;;;22.70;20.40;;;;;;;3.23;100.00;100504.91;5010537;28;20992;-76
2023/12/07 01:04:36;;;;;;;21.70;19.50;;;;;;;3.25;100.00;100522.94;5003507;28;20209;-77
2023/12/07 01:07:03;;;;;;;21.17;19.17;;;;;;;3.25;100.00;100530.69;5011026;28;20286;-78
2023/12/07 01:09:29;;;;;;;22.73;20.43;;;;;;;3.21;100.00;100544.41;5021657;28;20209;-78
2023/12/07 01:11:55;;;;;;;22.40;20.20;;;;;;;3.53;100.00;100544.81;4657407;28;10000302;-77
2023/12/07 01:14:22;;;;;;;21.40;19.43;;;;;;;3.69;99.57;100571.66;5005784;28;20274;-77
2023/12/07 01:16:49;;;;;;;21.27;18.93;;;;;;;3.62;98.70;100598.25;5014124;28;20766;-76
2023/12/07 01:19:16;;;;;;;21.63;19.63;;;;;;;3.31;99.36;100606.47;5013480;28;20264;-77
2023/12/07 01:21:42;;;;;;;21.03;18.93;;;;;;;3.47;98.49;100622.13;5010927;28;20557;-77
2023/12/07 01:24:09;;;;;;;19.90;18.10;;;;;;;3.43;98.19;100621.25;5011720;28;20208;-77
2023/12/07 01:26:35;;;;;;;20.47;18.53;;;;;;;3.45;98.10;100631.56;5012669;28;20224;-77
2023/12/07 01:29:02;;;;;;;20.90;18.83;;;;;;;3.35;98.49;100628.88;5012508;28;20561;-77
2023/12/07 01:31:28;;;;;;;20.73;18.87;;;;;;;3.45;98.74;100637.63;5013631;28;20200;-77
2023/12/07 01:33:56;;;;;;;20.87;18.73;;;;;;;3.44;97.90;100637.59;5014220;28;20262;-77
2023/12/07 01:36:22;;;;;;;19.20;17.47;;;;;;;3.25;99.09;100644.19;5013193;28;20238;-77
2023/12/07 01:38:49;;;;;;;21.03;18.97;;;;;;;3.06;99.62;100635.34;5011280;28;20658;-77
2023/12/07 01:41:15;;;;;;;20.93;18.73;;;;;;;3.29;100.00;100623.66;5013909;28;20208;-77
2023/12/07 01:43:45;;;;;;;20.30;18.33;;;;;;;3.51;99.45;100618.78;5013361;28;20230;-77
2023/12/07 01:46:12;;;;;;;21.77;19.73;;;;;;;3.51;98.50;100632.53;5001158;28;20226;-77
2023/12/07 01:48:38;;;;;;;20.17;18.17;;;;;;;3.31;98.00;100646.84;4998002;28;20263;-77
2023/12/07 01:51:07;;;;;;;20.53;18.53;;;;;;;3.47;98.22;100647.94;5012663;28;20210;-77
2023/12/07 01:53:34;;;;;;;20.80;18.63;;;;;;;3.53;98.05;100650.63;5013580;28;20259;-77
2023/12/07 01:56:01;;;;;;;22.43;20.27;;;;;;;3.28;98.02;100668.31;5011012;28;20224;-77
2023/12/07 01:58:27;;;;;;;22.20;20.10;;;;;;;3.49;97.76;100664.31;4999808;28;20279;-78
2023/12/07 02:00:54;;;;;;;20.87;18.90;;;;;;;3.64;97.15;100674.84;5012904;28;20203;-77
2023/12/07 02:03:21;;;;;;;18.40;16.47;;;;;;;3.86;95.93;100678.56;5013401;28;20222;-77
2023/12/07 02:05:48;;;;;;;19.53;17.83;;;;;;;3.93;95.41;100706.19;5004989;28;20220;-77
2023/12/07 02:08:16;;;;;;;17.63;16.00;;;;;;;4.03;94.10;100729.56;5012569;28;20206;-77
2023/12/07 02:10:42;;;;;;;17.90;16.27;;;;;;;4.09;93.48;100750.31;5013071;28;20724;-77
2023/12/07 02:13:09;;;;;;;18.57;16.87;;;;;;;4.05;93.37;100766.63;4996897;28;20246;-77
2023/12/07 02:15:37;;;;;;;21.47;19.20;;;;;;;3.53;94.71;100771.91;5012767;28;20218;-77
2023/12/07 02:18:07;;;;;;;20.13;18.33;;;;;;;3.55;95.84;100739.25;5003525;28;20717;-77
2023/12/07 02:20:40;;;;;;;20.67;18.67;;;;;;;3.61;95.82;100723.84;5012543;28;20203;-77
2023/12/07 02:23:08;;;;;;;18.07;16.40;;;;;;;3.76;95.39;100731.78;5009276;28;20266;-77
2023/12/07 02:25:44;;;;;;;20.70;18.80;;;;;;;3.77;95.10;100737.84;5001563;28;20217;-77
2023/12/07 02:28:12;;;;;;;21.07;19.13;;;;;;;3.66;95.01;100745.41;4997029;28;20194;-77
2023/12/07 02:30:39;;;;;;;19.03;17.37;;;;;;;3.78;94.68;100750.75;5012640;28;20708;-76
2023/12/07 02:33:05;;;;;;;21.10;18.20;;;;;;;3.86;94.08;100760.31;5004449;28;20211;-77
2023/12/07 02:35:33;;;;;;;21.80;19.50;;;;;;;3.85;93.84;100774.97;5012595;28;20238;-77
2023/12/07 02:38:00;;;;;;;22.63;20.33;;;;;;;3.72;94.47;100765.28;5012232;28;20281;-76
2023/12/07 02:40:28;;;;;;;23.10;20.67;;;;;;;3.82;94.51;100761.13;5012898;28;20200;-77
2023/12/07 02:42:55;;;;;;;23.03;20.40;;;;;;;3.59;94.19;100777.16;5011066;28;20205;-77
2023/12/07 02:45:23;;;;;;;18.73;17.07;;;;;;;3.80;94.37;100773.16;5005776;28;20251;-77
2023/12/07 02:47:49;;;;;;;19.73;17.90;;;;;;;3.86;93.80;100778.41;5004588;28;20204;-77
2023/12/07 02:50:15;;;;;;;19.87;17.90;;;;;;;3.92;92.88;100781.06;5012176;28;20231;-77
2023/12/07 02:52:42;;;;;;;18.53;16.80;;;;;;;4.01;92.17;100801.00;5012226;28;20201;-77
2023/12/07 02:55:09;;;;;;;18.63;17.00;;;;;;;4.01;91.53;100812.19;5012522;28;20204;-77
2023/12/07 02:57:36;;;;;;;19.23;17.23;;;;;;;4.08;91.34;100820.88;5005692;28;20234;-77
2023/12/07 03:00:06;;;;;;;20.93;19.07;;;;;;;3.85;92.31;100830.91;5010899;28;20266;-77
2023/12/07 03:02:34;;;;;;;22.43;19.50;;;;;;;3.90;92.65;100818.91;5003931;28;20521;-77
2023/12/07 03:05:00;;;;;;;20.40;18.40;;;;;;;3.88;93.13;100811.13;5010214;28;20205;-77
2023/12/07 03:07:26;;;;;;;21.43;19.27;;;;;;;3.84;93.13;100805.91;5006004;28;20206;-77
2023/12/07 03:09:53;;;;;;;22.77;20.37;;;;;;;3.43;94.60;100801.88;5012279;28;20204;-76
2023/12/07 03:12:19;;;;;;;22.23;19.83;;;;;;;3.54;95.01;100778.81;5014187;28;20204;-77
2023/12/07 03:14:45;;;;;;;22.47;20.20;;;;;;;3.59;95.54;100756.53;5015582;28;20200;-77
2023/12/07 03:17:12;;;;;;;23.47;19.67;;;;;;;3.65;95.32;100756.59;5015413;28;20232;-77
2023/12/07 03:19:40;;;;;;;22.10;19.80;;;;;;;3.44;95.05;100767.47;5016072;28;20266;-77
2023/12/07 03:22:07;;;;;;;22.93;20.63;;;;;;;3.48;95.12;100764.09;5014803;28;20206;-77
2023/12/07 03:24:33;;;;;;;20.97;18.80;;;;;;;3.52;95.85;100752.09;5015975;28;20286;-77
2023/12/07 03:26:59;;;;;;;22.30;19.93;;;;;;;3.58;96.24;100744.44;5015372;28;20223;-77
2023/12/07 03:29:26;;;;;;;23.77;19.87;;;;;;;3.71;95.38;100748.94;5015925;28;20261;-77
2023/12/07 03:31:52;;;;;;;19.40;17.50;;;;;;;3.85;94.61;100756.88;5015545;28;20199;-77
2023/12/07 03:34:19;;;;;;;21.67;19.57;;;;;;;3.58;94.81;100758.22;5015441;28;20200;-77
2023/12/07 03:36:47;;;;;;;19.87;17.63;;;;;;;3.81;94.16;100769.75;5014953;28;20656;-77
2023/12/07 03:39:14;;;;;;;20.63;18.63;;;;;;;3.69;94.20;100779.03;5015944;28;20203;-77
2023/12/07 03:41:40;;;;;;;21.40;19.27;;;;;;;3.65;94.76;100777.25;5015544;28;20231;-77
2023/12/07 03:44:07;;;;;;;22.70;20.07;;;;;;;3.64;93.47;100785.84;5015429;28;20207;-77
2023/12/07 03:46:33;;;;;;;21.33;19.03;;;;;;;3.84;93.67;100795.59;5015387;28;20289;-76
2023/12/07 03:49:00;;;;;;;18.30;16.70;;;;;;;3.86;93.09;100799.06;5015957;28;20262;-77
2023/12/07 03:51:26;;;;;;;19.77;17.83;;;;;;;3.92;92.90;100806.88;5010519;28;20208;-77
2023/12/07 03:53:54;;;;;;;18.10;16.50;;;;;;;4.01;92.35;100819.09;5013111;28;20201;-77
2023/12/07 03:56:24;;;;;;;19.57;17.57;;;;;;;4.02;91.98;100834.56;5015308;28;20219;-77
2023/12/07 03:58:50;;;;;;;25.13;20.83;;;;;;;3.71;92.99;100838.44;5015479;28;20301;-77
2023/12/07 04:01:16;;;;;;;22.50;20.20;;;;;;;3.46;94.86;100821.69;5011511;28;20684;-77
2023/12/07 04:03:43;;;;;;;20.83;18.63;;;;;;;3.66;94.84;100799.63;5010696;28;20199;-77
2023/12/07 04:06:09;;;;;;;22.83;20.43;;;;;;;3.56;95.16;100800.34;5014062;28;20232;-76
2023/12/07 04:08:36;;;;;;;21.67;19.60;;;;;;;3.60;94.87;100802.13;5015145;28;20196;-77
2023/12/07 04:11:04;;;;;;;23.13;20.77;;;;;;;3.53;95.60;100793.44;5014786;28;20240;-77
2023/12/07 04:13:30;;;;;;;23.23;19.53;;;;;;;3.42;95.84;100782.06;5014618;28;20677;-77
2023/12/07 04:15:57;;;;;;;26.83;21.30;;;;;;;3.43;97.01;100762.28;5013655;28;20249;-77
2023/12/07 04:18:23;;;;;;;26.23;21.93;;;;;;;3.43;97.22;100744.22;5014753;28;20725;-77
2023/12/07 04:20:49;;;;;;;23.90;21.23;;;;;;;3.45;97.63;100748.56;5006830;28;20227;-77
2023/12/07 04:23:16;;;;;;;22.97;20.57;;;;;;;3.44;97.96;100735.66;5013513;28;20200;-77
2023/12/07 04:25:42;;;;;;;26.60;20.87;;;;;;;3.47;96.87;100741.72;5014384;28;20220;-77
2023/12/07 04:28:10;;;;;;;25.17;22.13;;;;;;;3.73;96.54;100739.50;5014201;28;20629;-77
2023/12/07 04:30:36;;;;;;;24.70;20.70;;;;;;;3.74;96.16;100751.56;5006861;28;20211;-77
2023/12/07 04:33:02;;;;;;;24.53;21.90;;;;;;;3.66;95.94;100763.50;5014365;28;20251;-78
2023/12/07 04:35:29;;;;;;;26.87;21.83;;;;;;;3.62;96.71;100760.84;5014374;28;20223;-77
2023/12/07 04:37:55;;;;;;;28.57;21.33;;;;;;;3.73;96.16;100760.16;5013841;28;20241;-77
2023/12/07 04:40:21;;;;;;;28.33;21.53;;;;;;;3.45;97.24;100764.06;5015304;28;20257;-77
2023/12/07 04:42:47;;;;;;;23.63;21.13;;;;;;;3.58;96.81;100758.22;5014384;28;20749;-77
2023/12/07 04:45:15;;;;;;;27.93;21.03;;;;;;;3.54;96.51;100755.56;5014431;28;20265;-77
2023/12/07 04:47:42;;;;;;;26.70;22.27;;;;;;;3.42;97.83;100756.25;5013824;28;20259;-77
2023/12/07 04:50:09;;;;;;;31.63;21.87;;;;;;;3.44;97.73;100749.41;5012538;28;20586;-77
2023/12/07 04:52:35;;;;;;;27.97;21.53;;;;;;;3.47;98.04;100741.72;5007015;28;20224;-76
2023/12/07 04:55:02;;;;;;;25.73;21.17;;;;;;;3.68;97.75;100729.97;5014342;28;20216;-77
2023/12/07 04:57:28;;;;;;;23.90;19.00;;;;;;;3.81;96.51;100746.50;5014207;28;20223;-76
2023/12/07 04:59:55;;;;;;;25.40;21.77;;;;;;;3.75;96.41;100755.03;5014207;28;20207;-77
2023/12/07 05:02:23;;;;;;;23.93;20.97;;;;;;;3.53;97.32;100753.84;4997681;28;20203;-77
2023/12/07 05:04:49;;;;;;;35.40;20.70;;;;;;;3.60;96.48;100753.06;5013927;28;20203;-77
2023/12/07 05:07:15;;;;;;;20.77;18.40;;;;;;;3.84;95.86;100755.13;5013546;28;20248;-77
2023/12/07 05:09:42;;;;;;;22.13;19.87;;;;;;;3.91;95.28;100777.63;5014206;28;20200;-77
2023/12/07 05:12:08;;;;;;;22.47;20.07;;;;;;;3.98;94.12;100799.22;5013008;28;20647;-76
2023/12/07 05:14:36;;;;;;;20.73;18.80;;;;;;;3.95;93.46;100819.88;5013887;28;20203;-77
2023/12/07 05:17:02;;;;;;;22.23;19.93;;;;;;;3.75;93.43;100833.34;5012246;28;20314;-77
2023/12/07 05:19:30;;;;;;;22.43;20.13;;;;;;;3.53;95.71;100815.78;5009025;28;20716;-77
2023/12/07 05:21:56;;;;;;;21.27;19.00;;;;;;;3.81;95.40;100803.31;5009533;28;20229;-77
2023/12/07 05:24:22;;;;;;;19.17;17.00;;;;;;;3.91;94.68;100815.50;5013333;28;20213;-77
2023/12/07 05:26:49;;;;;;;24.40;18.37;;;;;;;3.72;93.70;100838.44;5013031;28;20776;-77
2023/12/07 05:29:16;;;;;;;19.80;17.80;;;;;;;3.91;94.01;100824.09;5005017;28;20199;-77
2023/12/07 05:31:42;;;;;;;19.67;17.27;;;;;;;3.78;93.68;100833.38;5007216;28;20285;-77
2023/12/07 05:34:08;;;;;;;23.03;16.80;;;;;;;3.91;93.38;100842.19;5010720;28;20271;-77
2023/12/07 05:36:36;;;;;;;17.40;15.70;;;;;;;3.96;92.88;100850.00;5012126;28;20227;-77
2023/12/07 05:39:02;;;;;;;18.63;16.63;;;;;;;4.01;92.61;100863.84;5013132;28;20224;-77
2023/12/07 05:41:29;;;;;;;17.33;15.73;;;;;;;4.00;92.36;100871.56;5013201;28;20259;-77
2023/12/07 05:43:55;;;;;;;17.73;15.80;;;;;;;4.05;91.61;100883.72;5012536;28;20213;-77
2023/12/07 05:46:21;;;;;;;16.03;14.60;;;;;;;4.06;91.04;100892.31;5000321;28;20368;-77
2023/12/07 05:48:48;;;;;;;17.30;15.77;;;;;;;3.85;92.19;100885.13;5008113;28;20254;-77
2023/12/07 05:51:15;;;;;;;17.63;16.07;;;;;;;3.99;92.13;100886.22;5012704;28;20274;-77
2023/12/07 05:53:43;;;;;;;15.20;13.90;;;;;;;4.04;91.34;100889.72;5006974;28;20671;-77
2023/12/07 05:56:10;;;;;;;17.07;15.30;;;;;;;4.05;91.20;100898.34;5011111;28;20264;-77
2023/12/07 05:58:37;;;;;;;16.67;15.07;;;;;;;3.98;90.84;100905.13;5012784;28;20231;-77
2023/12/07 06:01:03;;;;;;;16.57;15.07;;;;;;;4.04;90.71;100912.97;5012953;28;20244;-77
2023/12/07 06:03:30;;;;;;;16.33;14.73;;;;;;;4.04;90.34;100919.84;5013041;28;20278;-76
2023/12/07 06:05:57;;;;;;;15.23;13.80;;;;;;;4.07;90.29;100928.53;5013036;28;20283;-76
2023/12/07 06:08:23;;;;;;;16.73;15.00;;;;;;;4.06;90.20;100939.69;5012676;28;20667;-77
2023/12/07 06:10:51;;;;;;;15.80;14.13;;;;;;;4.12;89.74;100952.72;5005487;28;20284;-77
2023/12/07 06:13:17;;;;;;;15.77;14.17;;;;;;;4.11;90.00;100957.84;5012277;28;20204;-77
2023/12/07 06:15:43;;;;;;;15.17;13.90;;;;;;;4.09;89.92;100964.72;5012799;28;20224;-77
2023/12/07 06:18:10;;;;;;;15.67;14.03;;;;;;;4.15;89.26;100964.81;5010761;28;20227;-77
2023/12/07 06:20:36;;;;;;;14.97;13.67;;;;;;;4.14;89.36;100978.56;5013068;28;20206;-77
2023/12/07 06:23:03;;;;;;;16.47;13.40;;;;;;;4.16;89.19;100982.03;5012034;28;20203;-77
2023/12/07 06:25:29;;;;;;;15.40;14.00;;;;;;;4.18;89.11;100985.50;5012741;28;20282;-77
2023/12/07 06:27:57;;;;;;;16.87;15.20;;;;;;;4.09;89.25;101000.88;5012505;28;20248;-77
2023/12/07 06:30:24;;;;;;;16.60;15.03;;;;;;;4.12;89.30;100988.88;5004196;28;20263;-76
2023/12/07 06:32:51;;;;;;;15.10;13.83;;;;;;;4.13;89.41;100992.34;5012478;28;20208;-77
2023/12/07 06:35:17;;;;;;;14.40;13.10;;;;;;;4.15;88.86;100990.66;5012484;28;20255;-77
2023/12/07 06:37:43;;;;;;;15.50;13.73;;;;;;;4.17;89.29;100999.28;5011420;28;20212;-77
2023/12/07 06:40:10;;;;;;;16.17;14.67;;;;;;;4.17;88.87;101007.03;5012150;28;20654;-76
2023/12/07 06:42:37;;;;;;;16.70;15.10;;;;;;;4.17;88.96;101014.78;5011524;28;20577;-77
2023/12/07 06:47:33;;;;;;;16.17;14.83;;;;;;;4.15;88.86;101007.00;4989774;28;20215;-82
2023/12/07 06:49:59;;;;;;;15.20;13.90;;;;;;;4.10;88.47;101016.41;4989860;28;20686;-80
2023/12/07 06:52:25;;;;;;;14.60;13.20;;;;;;;4.12;88.69;101026.75;4977274;28;20209;-82
2023/12/07 06:54:52;;;;;;;16.17;14.67;;;;;;;4.10;88.92;101021.59;4992973;28;20227;-81
2023/12/07 06:57:18;;;;;;;16.10;14.60;;;;;;;4.10;89.12;101020.69;4997447;28;20279;-80
2023/12/07 06:59:44;;;;;;;17.07;15.37;;;;;;;4.14;88.90;101019.91;4998005;28;20697;-81
2023/12/07 07:02:10;;;;;;;16.20;14.60;;;;;;;4.13;89.09;101018.16;4997657;28;20208;-79
2023/12/07 07:04:38;;;;;;;15.90;14.43;;;;;;;4.10;89.56;101013.84;4998724;28;20644;-82
2023/12/07 07:07:04;;;;;;;15.77;14.37;;;;;;;4.10;89.43;101015.53;4997373;28;20224;-80
2023/12/07 07:09:31;;;;;;;15.23;13.80;;;;;;;4.12;89.17;101012.16;4990308;28;20272;-81
2023/12/07 07:11:57;;;;;;;17.43;15.83;;;;;;;4.13;89.18;101018.16;4997530;28;20850;-82
2023/12/07 07:14:23;;;;;;;15.87;14.40;;;;;;;4.13;89.26;101019.03;4998361;28;20208;-80
2023/12/07 07:16:50;;;;;;;15.80;14.13;;;;;;;4.15;88.83;101027.69;4997857;28;20225;-83
2023/12/07 07:19:17;;;;;;;17.73;15.70;;;;;;;4.18;88.81;101032.00;4998160;28;20963;-82
2023/12/07 07:21:44;;;;;;;17.97;16.20;;;;;;;4.14;89.04;101020.78;4997405;28;20214;-80
2023/12/07 07:24:11;;;;;;;18.37;16.60;;;;;;;4.14;89.31;101025.06;4997407;28;20243;-80
2023/12/07 07:26:38;;;;;;;18.53;16.17;;;;;;;4.14;89.17;101013.03;4996979;28;20271;-79
2023/12/07 07:29:06;;;;;;;16.33;14.80;;;;;;;4.09;89.26;101012.06;4996628;28;20296;-82
2023/12/07 07:31:32;;;;;;;16.67;15.20;;;;;;;4.20;89.39;101011.38;4996729;28;20578;-80
2023/12/07 07:33:59;;;;;;;16.70;15.07;;;;;;;4.18;88.79;101017.41;4997092;28;20209;-82
2023/12/07 07:36:25;;;;;;;16.23;14.70;;;;;;;4.15;89.13;101019.06;4995898;28;20283;-82
2023/12/07 07:38:53;;;;;;;16.60;14.97;;;;;;;4.15;89.40;101027.69;4996917;28;20649;-80
2023/12/07 07:41:19;;;;;;;17.63;15.77;;;;;;;4.18;89.22;101021.69;4996659;28;20210;-80
2023/12/07 07:43:45;;;;;;;20.10;18.10;;;;;;;4.16;89.39;101031.13;4996226;28;20204;-81
2023/12/07 07:46:12;;;;;;;18.97;15.73;;;;;;;4.12;89.70;101030.22;4996103;28;20242;-80
2023/12/07 07:48:39;;;;;;;17.20;15.40;;;;;;;4.15;89.38;101030.25;4996619;28;20267;-80
2023/12/07 07:51:05;;;;;;;19.40;15.00;;;;;;;4.17;89.67;101030.28;4996137;28;20211;-78
2023/12/07 07:53:32;;;;;;;16.80;15.27;;;;;;;4.24;89.23;101021.81;4990925;28;20745;-80
2023/12/07 07:55:59;;;;;;;19.13;17.33;;;;;;;4.20;89.30;101032.91;4996682;28;20220;-81
2023/12/07 07:58:26;;;;;;;16.73;15.00;;;;;;;4.27;89.56;101034.75;4996256;28;20255;-80
2023/12/07 08:00:52;;;;;;;20.27;17.20;;;;;;;4.22;88.91;101035.53;4996654;28;20201;-81
2023/12/07 08:03:18;;;;;;;17.63;15.97;;;;;;;4.17;89.30;101036.31;4995982;28;20205;-79
2023/12/07 08:05:45;;;;;;;17.53;15.73;;;;;;;4.19;89.72;101033.78;4996739;28;20224;-80
2023/12/07 08:08:11;;;;;;;17.63;15.90;;;;;;;4.18;89.75;101032.91;4995964;28;20642;-78
2023/12/07 08:10:39;;;;;;;17.50;15.90;;;;;;;4.24;89.24;101029.56;4996638;28;20207;-80
2023/12/07 08:13:07;;;;;;;18.53;16.73;;;;;;;4.26;89.35;101033.03;4996415;28;20269;-80
2023/12/07 08:15:33;;;;;;;19.07;17.03;;;;;;;4.07;89.67;101049.94;4996606;28;20227;-81
2023/12/07 08:18:00;;;;;;;19.07;17.00;;;;;;;4.07;90.21;101034.44;4996887;28;20592;-80
2023/12/07 08:20:26;;;;;;;19.47;16.63;;;;;;;4.09;90.59;101017.25;4996535;28;20235;-83
2023/12/07 08:22:53;;;;;;;20.43;16.30;;;;;;;4.13;90.95;101011.28;4996135;28;20205;-81
2023/12/07 08:25:19;;;;;;;17.23;15.53;;;;;;;4.18;90.55;101011.34;4996884;28;20217;-80
2023/12/07 08:27:46;;;;;;;19.07;17.07;;;;;;;4.06;90.98;101006.84;4996496;28;20201;-80
2023/12/07 08:30:13;;;;;;;16.30;14.47;;;;;;;4.18;91.00;100990.69;4995931;28;20204;-80
2023/12/07 08:32:40;;;;;;;17.33;15.43;;;;;;;4.29;90.74;100996.03;4995956;28;20252;-80
2023/12/07 08:35:08;;;;;;;18.00;15.37;;;;;;;4.28;89.96;101008.09;4995953;28;20209;-80
2023/12/07 08:37:34;;;;;;;17.10;15.37;;;;;;;4.27;90.56;100998.59;4995636;28;20240;-81
2023/12/07 08:40:00;;;;;;;17.77;16.17;;;;;;;4.33;90.62;101001.25;4996525;28;20225;-81
2023/12/07 08:42:27;;;;;;;17.53;15.73;;;;;;;4.38;90.56;101003.94;4995823;28;20650;-79
2023/12/07 08:44:53;;;;;;;19.40;17.50;;;;;;;4.35;90.55;101001.28;4996027;28;20204;-79
2023/12/07 08:47:21;;;;;;;16.87;15.30;;;;;;;4.69;95.35;100937.16;4995576;28;21025;-81
2023/12/07 08:49:47;;;;;;;22.47;16.97;;;;;;;4.78;97.77;100870.91;4996180;28;20204;-81
2023/12/07 08:52:14;;;;;;;18.67;16.87;;;;;;;4.86;97.33;100852.88;4995213;28;20214;-80
2023/12/07 08:54:40;;;;;;;18.20;16.27;;;;;;;4.89;96.72;100860.66;4997230;28;20234;-85
2023/12/07 08:57:07;;;;;;;17.30;15.30;;;;;;;4.87;95.94;100869.25;4996733;28;20252;-82
2023/12/07 08:59:33;;;;;;;16.80;14.90;;;;;;;4.85;94.65;100887.34;4996120;28;20228;-83
2023/12/07 09:02:00;;;;;;;15.83;14.23;;;;;;;4.82;94.64;100915.78;4995917;28;20216;-80
2023/12/07 09:04:27;;;;;;;16.60;15.10;;;;;;;4.87;95.11;100902.88;4995479;28;20205;-82
2023/12/07 09:06:54;;;;;;;16.97;15.27;;;;;;;4.68;91.22;100953.53;4996857;28;20936;-82
2023/12/07 09:09:22;;;;;;;16.73;15.13;;;;;;;4.88;90.32;100985.69;4995296;28;20209;-81
2023/12/07 09:11:48;;;;;;;16.93;14.97;;;;;;;4.96;89.79;101009.94;4997994;28;20205;-81
2023/12/07 09:14:14;;;;;;;16.93;15.33;;;;;;;5.03;88.41;101030.72;4997609;28;20267;-84
2023/12/07 09:16:45;;;;;;;14.10;12.90;;;;;;;5.04;88.58;101048.84;4996801;28;20287;-81
2023/12/07 09:19:12;;;;;;;15.03;13.53;;;;;;;5.05;89.53;101058.34;4995812;28;20609;-83
2023/12/07 09:21:39;;;;;;;14.37;12.87;;;;;;;5.16;90.32;101040.38;4995823;28;20216;-81
2023/12/07 09:24:06;;;;;;;14.23;13.03;;;;;;;5.21;90.95;101015.41;4994776;28;20258;-80
2023/12/07 09:26:32;;;;;;;15.97;14.40;;;;;;;5.22;91.04;100999.03;4994170;28;20228;-82
2023/12/07 09:28:59;;;;;;;15.17;13.73;;;;;;;5.21;91.15;101015.41;4995608;28;20286;-83
2023/12/07 09:31:25;;;;;;;17.00;15.40;;;;;;;5.11;89.93;101032.56;4990142;28;20269;-82
2023/12/07 09:33:53;;;;;;;15.23;13.83;;;;;;;5.25;89.91;101031.84;4995487;28;20214;-82
2023/12/07 09:36:21;;;;;;;14.77;13.37;;;;;;;5.30;90.35;101032.78;4993552;28;21144;-82
2023/12/07 09:38:48;;;;;;;14.17;12.87;;;;;;;5.30;89.57;101050.91;4995806;28;20228;-81
2023/12/07 09:41:17;;;;;;;13.50;12.30;;;;;;;5.37;91.78;101034.56;4996180;28;20211;-81
2023/12/07 09:43:45;;;;;;;13.30;11.87;;;;;;;5.39;92.51;101004.41;4997063;28;20204;-80
2023/12/07 09:46:11;;;;;;;13.77;12.57;;;;;;;5.27;91.04;101006.84;4995841;28;20696;-84
2023/12/07 09:48:42;;;;;;;14.13;12.83;;;;;;;5.20;90.75;101025.75;4994233;28;20470;-82
2023/12/07 09:51:11;;;;;;;14.80;13.40;;;;;;;5.23;90.11;101031.81;4994403;28;20263;-82
2023/12/07 09:53:40;;;;;;;15.63;13.20;;;;;;;5.21;89.92;101048.19;4994918;28;20215;-84
2023/12/07 09:56:09;;;;;;;13.30;12.20;;;;;;;5.20;89.04;101062.00;4993678;28;20227;-84
2023/12/07 09:58:35;;;;;;;13.77;12.57;;;;;;;5.18;89.35;101062.81;4993618;28;20204;-83
2023/12/07 10:01:02;;;;;;;15.37;12.93;;;;;;;5.20;89.75;101062.84;4994722;28;20232;-82
2023/12/07 10:03:30;;;;;;;15.40;12.63;;;;;;;5.05;88.03;101091.09;4993366;28;20625;-82
2023/12/07 10:06:01;;;;;;;17.50;15.77;;;;;;;5.05;87.88;101094.56;4995038;28;20718;-81
2023/12/07 10:08:29;;;;;;;15.57;14.03;;;;;;;5.18;89.62;101073.19;4994854;28;20212;-83
2023/12/07 10:11:04;;;;;;;17.33;13.90;;;;;;;5.14;88.94;101076.56;4995121;28;20231;-82
2023/12/07 10:13:34;;;;;;;17.30;14.63;;;;;;;5.28;88.76;101076.75;4994916;28;20569;-81
2023/12/07 10:16:09;;;;;;;16.67;15.17;;;;;;;4.81;85.31;101127.81;4996957;28;20767;-81
2023/12/07 10:18:36;;;;;;;16.63;14.93;;;;;;;4.88;85.25;101158.13;4997220;28;20216;-82
2023/12/07 10:21:03;;;;;;;14.77;13.27;;;;;;;5.02;85.29;101168.69;4996586;28;20767;-81
2023/12/07 10:23:31;;;;;;;15.47;14.07;;;;;;;5.03;85.32;101168.69;4997436;28;20206;-81
2023/12/07 10:25:59;;;;;;;15.07;13.57;;;;;;;5.04;85.87;101162.69;4998039;28;20234;-83
2023/12/07 10:28:27;;;;;;;14.67;13.37;;;;;;;5.12;85.70;101163.66;4998159;28;20208;-82
2023/12/07 10:30:55;;;;;;;14.00;12.80;;;;;;;5.10;86.01;101174.84;4996713;28;20302;-82
2023/12/07 10:33:21;;;;;;;16.73;15.23;;;;;;;5.12;86.02;101171.44;4996568;28;20310;-82
2023/12/07 10:35:50;;;;;;;15.90;13.87;;;;;;;4.95;85.92;101184.09;4977504;28;20221;-84
2023/12/07 10:38:17;;;;;;;15.97;14.47;;;;;;;5.05;86.16;101169.59;4976934;28;20217;-81
2023/12/07 10:40:44;;;;;;;14.50;13.20;;;;;;;5.04;86.28;101161.81;4978059;28;20229;-81
2023/12/07 10:43:12;;;;;;;16.90;15.27;;;;;;;5.06;86.45;101158.41;4992339;28;20212;-82
2023/12/07 10:45:43;;;;;;;14.80;13.40;;;;;;;5.08;86.02;101145.50;4998137;28;20265;-81
2023/12/07 10:48:11;;;;;;;15.80;14.30;;;;;;;5.10;86.38;101147.25;4990114;28;20378;-82
2023/12/07 10:50:43;;;;;;;14.37;13.03;;;;;;;5.12;86.93;101129.16;4996167;28;20207;-87
2023/12/07 10:53:12;;;;;;;15.10;13.67;;;;;;;5.10;87.38;101129.13;4998385;28;20208;-80
2023/12/07 10:55:44;;;;;;;16.70;13.37;;;;;;;5.11;86.84;101119.66;4999327;28;20237;-85
2023/12/07 10:58:12;;;;;;;15.80;14.37;;;;;;;5.01;87.55;101116.06;4997616;28;20293;-85
2023/12/07 11:00:41;;;;;;;15.80;14.30;;;;;;;5.05;87.57;101091.09;4996794;28;20717;-85
2023/12/07 11:03:11;;;;;;;14.93;13.53;;;;;;;5.07;87.53;101089.41;4996150;28;20208;-84
2023/12/07 11:05:38;;;;;;;16.03;14.47;;;;;;;5.06;87.08;101088.53;4996839;28;20232;-84
2023/12/07 11:08:08;;;;;;;16.07;14.57;;;;;;;5.11;87.30;101091.19;4996792;28;20213;-87
2023/12/07 11:10:40;;;;;;;18.20;15.57;;;;;;;5.11;86.52;101094.66;4996392;28;20238;-86
2023/12/07 11:13:13;;;;;;;16.60;14.93;;;;;;;5.10;85.95;101123.09;4995577;28;20212;-85
2023/12/07 11:15:40;;;;;;;16.77;14.97;;;;;;;5.16;85.07;101134.41;4995981;28;20247;-87
2023/12/07 11:18:07;;;;;;;19.83;14.97;;;;;;;5.22;85.42;101132.75;4997504;28;20216;-83